This is the latest recevied weather packets stored in our database for station/object YO6SAY-10. If no packets are shown the sender has not sent any weather packets the latest 10 day(s).
| Time | Temp. | Humidity | Pressure | Rain* | Wind** | Luminosity | Snow |
|---|---|---|---|---|---|---|---|
| 1777498125 | 10.56° C | 44% | 954.7 hPa | - | - | - | - |
| 1777496325 | 11.11° C | 44% | 954.7 hPa | - | - | - | - |
| 1777495616 | 11.67° C | 43% | 954.4 hPa | - | - | - | - |
| 1777494525 | 11.67° C | 43% | 954.4 hPa | - | - | - | - |
| 1777493625 | 11.67° C | 42% | 954.2 hPa | - | - | - | - |
| 1777490924 | 12.78° C | 41% | 953.8 hPa | - | - | - | - |
| 1777490024 | 12.78° C | 40% | 953.7 hPa | - | - | - | - |
| 1777489124 | 13.33° C | 39% | 953.4 hPa | - | - | - | - |
| 1777487324 | 13.89° C | 38% | 952.5 hPa | - | - | - | - |
| 1777486424 | 14.44° C | 38% | 952.2 hPa | - | - | - | - |
| 1777483723 | 15.56° C | 38% | 951.4 hPa | - | - | - | - |
| 1777481923 | 16.67° C | 37% | 950.7 hPa | - | - | - | - |
| 1777480122 | 17.78° C | 35% | 950.3 hPa | - | - | - | - |
| 1777478322 | 18.89° C | 33% | 950.4 hPa | - | - | - | - |
| 1777476522 | 22.22° C | 32% | 950.1 hPa | - | - | - | - |
| 1777475622 | 23.89° C | 31% | 949.6 hPa | - | - | - | - |
| 1777474722 | 23.89° C | 31% | 949.6 hPa | - | - | - | - |
| 1777471121 | 21.67° C | 34% | 949.7 hPa | - | - | - | - |
| 1777469321 | 18.89° C | 35% | 949.8 hPa | - | - | - | - |
| 1777468421 | 18.33° C | 35% | 949.9 hPa | - | - | - | - |
| 1777467520 | 17.22° C | 36% | 949.9 hPa | - | - | - | - |
| 1777465720 | 17.78° C | 36% | 950.2 hPa | - | - | - | - |
| 1777463919 | 17.78° C | 37% | 950.5 hPa | - | - | - | - |
| 1777462119 | 17.78° C | 39% | 950.6 hPa | - | - | - | - |
| 1777461219 | 17.78° C | 39% | 950.7 hPa | - | - | - | - |
* Rain since midnight (hover to see other rain measurements)
** Current wind speed in m/s (hover to see current wind gust speed)